sensor_id;sensor_type;location;lat;lon;timestamp;P1;durP1;ratioP1;P2;durP2;ratioP2
46721;SDS011;32455;43.430;23.136;2023-08-07T00:01:13;4.43;;;3.65;;
46721;SDS011;32455;43.430;23.136;2023-08-07T00:03:58;6.30;;;4.00;;
46721;SDS011;32455;43.430;23.136;2023-08-07T00:06:44;6.50;;;4.43;;
46721;SDS011;32455;43.430;23.136;2023-08-07T00:09:30;5.35;;;4.20;;
46721;SDS011;32455;43.430;23.136;2023-08-07T00:12:16;3.70;;;3.40;;
46721;SDS011;32455;43.430;23.136;2023-08-07T00:15:04;4.80;;;3.55;;
46721;SDS011;32455;43.430;23.136;2023-08-07T00:17:50;5.50;;;3.25;;
46721;SDS011;32455;43.430;23.136;2023-08-07T00:20:36;4.15;;;3.58;;
46721;SDS011;32455;43.430;23.136;2023-08-07T00:23:21;7.57;;;3.35;;
46721;SDS011;32455;43.430;23.136;2023-08-07T00:26:06;4.75;;;3.53;;
46721;SDS011;32455;43.430;23.136;2023-08-07T00:28:51;4.93;;;3.67;;
46721;SDS011;32455;43.430;23.136;2023-08-07T00:31:37;4.25;;;3.78;;
46721;SDS011;32455;43.430;23.136;2023-08-07T00:34:22;5.35;;;3.95;;
46721;SDS011;32455;43.430;23.136;2023-08-07T00:37:07;9.82;;;3.90;;
46721;SDS011;32455;43.430;23.136;2023-08-07T00:39:53;5.35;;;3.67;;
46721;SDS011;32455;43.430;23.136;2023-08-07T00:42:38;4.43;;;3.92;;
46721;SDS011;32455;43.430;23.136;2023-08-07T00:45:23;4.72;;;4.30;;
46721;SDS011;32455;43.430;23.136;2023-08-07T00:48:09;6.30;;;4.40;;
46721;SDS011;32455;43.430;23.136;2023-08-07T00:50:55;6.93;;;4.47;;
46721;SDS011;32455;43.430;23.136;2023-08-07T00:53:41;4.85;;;3.78;;
46721;SDS011;32455;43.430;23.136;2023-08-07T00:56:27;4.13;;;3.42;;
46721;SDS011;32455;43.430;23.136;2023-08-07T00:59:13;4.43;;;3.80;;
46721;SDS011;32455;43.430;23.136;2023-08-07T01:02:00;3.47;;;3.10;;
46721;SDS011;32455;43.430;23.136;2023-08-07T01:04:46;4.50;;;3.17;;
46721;SDS011;32455;43.430;23.136;2023-08-07T01:07:31;3.70;;;3.40;;
46721;SDS011;32455;43.430;23.136;2023-08-07T01:10:17;4.40;;;3.03;;
46721;SDS011;32455;43.430;23.136;2023-08-07T01:13:37;2.90;;;2.70;;
46721;SDS011;32455;43.430;23.136;2023-08-07T01:16:27;2.72;;;2.53;;
46721;SDS011;32455;43.430;23.136;2023-08-07T01:19:27;2.45;;;2.25;;
46721;SDS011;32455;43.430;23.136;2023-08-07T01:22:17;2.20;;;2.00;;
46721;SDS011;32455;43.430;23.136;2023-08-07T01:25:04;1.90;;;1.80;;
46721;SDS011;32455;43.430;23.136;2023-08-07T01:27:54;2.13;;;1.83;;
46721;SDS011;32455;43.430;23.136;2023-08-07T01:30:49;1.60;;;1.50;;
46721;SDS011;32455;43.430;23.136;2023-08-07T01:33:46;1.50;;;1.40;;
46721;SDS011;32455;43.430;23.136;2023-08-07T01:36:36;1.60;;;1.50;;
46721;SDS011;32455;43.430;23.136;2023-08-07T01:39:24;3.63;;;1.60;;
46721;SDS011;32455;43.430;23.136;2023-08-07T01:42:10;1.77;;;1.63;;
46721;SDS011;32455;43.430;23.136;2023-08-07T01:44:56;1.50;;;1.40;;
46721;SDS011;32455;43.430;23.136;2023-08-07T01:47:41;3.10;;;1.50;;
46721;SDS011;32455;43.430;23.136;2023-08-07T01:50:26;1.77;;;1.67;;
46721;SDS011;32455;43.430;23.136;2023-08-07T01:53:11;1.63;;;1.50;;
46721;SDS011;32455;43.430;23.136;2023-08-07T01:55:56;1.50;;;1.40;;
46721;SDS011;32455;43.430;23.136;2023-08-07T01:58:42;2.28;;;1.88;;
46721;SDS011;32455;43.430;23.136;2023-08-07T02:01:27;3.92;;;1.70;;
46721;SDS011;32455;43.430;23.136;2023-08-07T02:04:12;3.25;;;1.58;;
46721;SDS011;32455;43.430;23.136;2023-08-07T02:06:57;1.95;;;1.80;;
46721;SDS011;32455;43.430;23.136;2023-08-07T02:09:43;1.50;;;1.40;;
46721;SDS011;32455;43.430;23.136;2023-08-07T02:12:28;1.30;;;1.20;;
46721;SDS011;32455;43.430;23.136;2023-08-07T02:15:17;1.65;;;1.52;;
46721;SDS011;32455;43.430;23.136;2023-08-07T02:18:02;2.33;;;1.50;;
46721;SDS011;32455;43.430;23.136;2023-08-07T02:20:47;1.50;;;1.40;;
46721;SDS011;32455;43.430;23.136;2023-08-07T02:23:32;1.95;;;1.85;;
46721;SDS011;32455;43.430;23.136;2023-08-07T02:26:19;2.53;;;1.90;;
46721;SDS011;32455;43.430;23.136;2023-08-07T02:29:04;1.80;;;1.70;;
46721;SDS011;32455;43.430;23.136;2023-08-07T02:31:52;2.15;;;1.95;;
46721;SDS011;32455;43.430;23.136;2023-08-07T02:34:37;2.67;;;1.80;;
46721;SDS011;32455;43.430;23.136;2023-08-07T02:37:21;3.28;;;2.00;;
46721;SDS011;32455;43.430;23.136;2023-08-07T02:40:06;2.83;;;2.20;;
46721;SDS011;32455;43.430;23.136;2023-08-07T02:42:52;4.60;;;2.50;;
46721;SDS011;32455;43.430;23.136;2023-08-07T02:45:37;5.57;;;2.22;;
46721;SDS011;32455;43.430;23.136;2023-08-07T02:48:23;5.20;;;2.28;;
46721;SDS011;32455;43.430;23.136;2023-08-07T02:51:08;3.33;;;2.10;;
46721;SDS011;32455;43.430;23.136;2023-08-07T02:53:53;2.00;;;1.90;;
46721;SDS011;32455;43.430;23.136;2023-08-07T02:56:38;2.75;;;1.98;;
46721;SDS011;32455;43.430;23.136;2023-08-07T02:59:24;2.42;;;2.08;;
46721;SDS011;32455;43.430;23.136;2023-08-07T03:02:09;4.97;;;2.22;;
46721;SDS011;32455;43.430;23.136;2023-08-07T03:04:54;2.20;;;2.00;;
46721;SDS011;32455;43.430;23.136;2023-08-07T03:07:40;2.63;;;2.00;;
46721;SDS011;32455;43.430;23.136;2023-08-07T03:10:25;5.00;;;1.98;;
46721;SDS011;32455;43.430;23.136;2023-08-07T03:13:11;1.70;;;1.60;;
46721;SDS011;32455;43.430;23.136;2023-08-07T03:15:59;4.70;;;1.90;;
46721;SDS011;32455;43.430;23.136;2023-08-07T03:18:49;1.80;;;1.70;;
46721;SDS011;32455;43.430;23.136;2023-08-07T03:21:35;1.90;;;1.80;;
46721;SDS011;32455;43.430;23.136;2023-08-07T03:24:21;2.53;;;1.50;;
46721;SDS011;32455;43.430;23.136;2023-08-07T03:27:06;1.83;;;1.73;;
46721;SDS011;32455;43.430;23.136;2023-08-07T03:29:52;2.08;;;1.67;;
46721;SDS011;32455;43.430;23.136;2023-08-07T03:32:38;4.60;;;2.20;;
46721;SDS011;32455;43.430;23.136;2023-08-07T03:35:23;1.98;;;1.88;;
46721;SDS011;32455;43.430;23.136;2023-08-07T03:38:08;2.17;;;1.92;;
46721;SDS011;32455;43.430;23.136;2023-08-07T03:40:54;1.80;;;1.70;;
46721;SDS011;32455;43.430;23.136;2023-08-07T03:43:40;2.03;;;1.85;;
46721;SDS011;32455;43.430;23.136;2023-08-07T03:46:25;2.53;;;1.90;;
46721;SDS011;32455;43.430;23.136;2023-08-07T03:49:10;2.05;;;1.92;;
46721;SDS011;32455;43.430;23.136;2023-08-07T03:51:56;1.88;;;1.70;;
46721;SDS011;32455;43.430;23.136;2023-08-07T03:54:41;2.35;;;1.85;;
46721;SDS011;32455;43.430;23.136;2023-08-07T03:57:26;2.10;;;2.00;;
46721;SDS011;32455;43.430;23.136;2023-08-07T04:00:12;1.95;;;1.75;;
46721;SDS011;32455;43.430;23.136;2023-08-07T04:02:57;2.10;;;1.90;;
46721;SDS011;32455;43.430;23.136;2023-08-07T04:05:43;2.00;;;1.90;;
46721;SDS011;32455;43.430;23.136;2023-08-07T04:08:28;2.03;;;1.83;;
46721;SDS011;32455;43.430;23.136;2023-08-07T04:11:14;2.13;;;1.73;;
46721;SDS011;32455;43.430;23.136;2023-08-07T04:14:00;4.05;;;1.90;;
46721;SDS011;32455;43.430;23.136;2023-08-07T04:16:45;3.22;;;1.95;;
46721;SDS011;32455;43.430;23.136;2023-08-07T04:19:29;5.93;;;1.67;;
46721;SDS011;32455;43.430;23.136;2023-08-07T04:22:14;1.98;;;1.63;;
46721;SDS011;32455;43.430;23.136;2023-08-07T04:25:00;3.15;;;1.27;;
46721;SDS011;32455;43.430;23.136;2023-08-07T04:27:45;1.63;;;1.48;;
46721;SDS011;32455;43.430;23.136;2023-08-07T04:30:30;2.28;;;1.60;;
46721;SDS011;32455;43.430;23.136;2023-08-07T04:33:15;3.35;;;1.50;;
46721;SDS011;32455;43.430;23.136;2023-08-07T04:36:00;2.70;;;1.40;;
46721;SDS011;32455;43.430;23.136;2023-08-07T04:38:46;1.77;;;1.67;;
46721;SDS011;32455;43.430;23.136;2023-08-07T04:41:31;1.30;;;1.20;;
46721;SDS011;32455;43.430;23.136;2023-08-07T04:44:16;2.13;;;1.75;;
46721;SDS011;32455;43.430;23.136;2023-08-07T04:47:01;2.92;;;1.60;;
46721;SDS011;32455;43.430;23.136;2023-08-07T04:49:47;2.03;;;1.60;;
46721;SDS011;32455;43.430;23.136;2023-08-07T04:52:32;2.28;;;1.83;;
46721;SDS011;32455;43.430;23.136;2023-08-07T04:55:18;3.67;;;1.95;;
46721;SDS011;32455;43.430;23.136;2023-08-07T04:58:03;1.63;;;1.52;;
46721;SDS011;32455;43.430;23.136;2023-08-07T05:00:54;3.75;;;1.70;;
46721;SDS011;32455;43.430;23.136;2023-08-07T05:03:41;1.60;;;1.50;;
46721;SDS011;32455;43.430;23.136;2023-08-07T05:06:26;2.08;;;1.60;;
46721;SDS011;32455;43.430;23.136;2023-08-07T05:09:12;2.03;;;1.30;;
46721;SDS011;32455;43.430;23.136;2023-08-07T05:11:57;2.00;;;1.80;;
46721;SDS011;32455;43.430;23.136;2023-08-07T05:14:43;1.88;;;1.67;;
46721;SDS011;32455;43.430;23.136;2023-08-07T05:17:28;5.60;;;1.80;;
46721;SDS011;32455;43.430;23.136;2023-08-07T05:20:14;3.08;;;1.50;;
46721;SDS011;32455;43.430;23.136;2023-08-07T05:22:59;2.80;;;1.63;;
46721;SDS011;32455;43.430;23.136;2023-08-07T05:25:47;1.80;;;1.70;;
46721;SDS011;32455;43.430;23.136;2023-08-07T05:28:32;1.65;;;1.55;;
46721;SDS011;32455;43.430;23.136;2023-08-07T05:31:18;1.52;;;1.40;;
46721;SDS011;32455;43.430;23.136;2023-08-07T05:34:03;1.95;;;1.58;;
46721;SDS011;32455;43.430;23.136;2023-08-07T05:36:48;1.60;;;1.50;;
46721;SDS011;32455;43.430;23.136;2023-08-07T05:39:34;3.05;;;1.23;;
46721;SDS011;32455;43.430;23.136;2023-08-07T05:42:20;1.75;;;1.15;;
46721;SDS011;32455;43.430;23.136;2023-08-07T05:45:05;1.77;;;1.40;;
46721;SDS011;32455;43.430;23.136;2023-08-07T05:47:51;2.47;;;1.10;;
46721;SDS011;32455;43.430;23.136;2023-08-07T05:50:36;1.35;;;1.25;;
46721;SDS011;32455;43.430;23.136;2023-08-07T05:53:22;2.17;;;1.35;;
46721;SDS011;32455;43.430;23.136;2023-08-07T05:56:06;1.70;;;1.25;;
46721;SDS011;32455;43.430;23.136;2023-08-07T05:58:51;1.48;;;1.38;;
46721;SDS011;32455;43.430;23.136;2023-08-07T06:01:36;3.50;;;1.45;;
46721;SDS011;32455;43.430;23.136;2023-08-07T06:04:22;1.35;;;1.15;;
46721;SDS011;32455;43.430;23.136;2023-08-07T06:07:08;1.10;;;1.00;;
46721;SDS011;32455;43.430;23.136;2023-08-07T06:09:54;1.48;;;1.33;;
46721;SDS011;32455;43.430;23.136;2023-08-07T06:12:40;1.17;;;1.08;;
46721;SDS011;32455;43.430;23.136;2023-08-07T06:15:25;0.93;;;0.90;;
46721;SDS011;32455;43.430;23.136;2023-08-07T06:18:12;1.45;;;0.70;;
46721;SDS011;32455;43.430;23.136;2023-08-07T06:20:57;0.90;;;0.85;;
46721;SDS011;32455;43.430;23.136;2023-08-07T06:23:42;2.33;;;0.70;;
46721;SDS011;32455;43.430;23.136;2023-08-07T06:26:28;0.88;;;0.80;;
46721;SDS011;32455;43.430;23.136;2023-08-07T06:29:13;0.60;;;0.60;;
46721;SDS011;32455;43.430;23.136;2023-08-07T06:31:58;2.88;;;0.98;;
46721;SDS011;32455;43.430;23.136;2023-08-07T06:34:44;0.70;;;0.70;;
46721;SDS011;32455;43.430;23.136;2023-08-07T06:37:31;0.70;;;0.70;;
46721;SDS011;32455;43.430;23.136;2023-08-07T06:40:16;1.17;;;0.70;;
46721;SDS011;32455;43.430;23.136;2023-08-07T06:43:06;0.68;;;0.68;;
46721;SDS011;32455;43.430;23.136;2023-08-07T06:45:53;0.60;;;0.60;;
46721;SDS011;32455;43.430;23.136;2023-08-07T06:48:39;2.28;;;0.60;;
46721;SDS011;32455;43.430;23.136;2023-08-07T06:51:25;1.67;;;0.60;;
46721;SDS011;32455;43.430;23.136;2023-08-07T06:54:10;0.65;;;0.65;;
46721;SDS011;32455;43.430;23.136;2023-08-07T06:56:56;1.88;;;0.88;;
46721;SDS011;32455;43.430;23.136;2023-08-07T06:59:41;2.03;;;0.63;;
46721;SDS011;32455;43.430;23.136;2023-08-07T07:02:26;1.52;;;1.15;;
46721;SDS011;32455;43.430;23.136;2023-08-07T07:05:12;1.08;;;0.80;;
46721;SDS011;32455;43.430;23.136;2023-08-07T07:07:57;2.45;;;0.82;;
46721;SDS011;32455;43.430;23.136;2023-08-07T07:10:43;0.70;;;0.65;;
46721;SDS011;32455;43.430;23.136;2023-08-07T07:13:29;0.70;;;0.70;;
46721;SDS011;32455;43.430;23.136;2023-08-07T07:16:14;1.58;;;0.75;;
46721;SDS011;32455;43.430;23.136;2023-08-07T07:19:00;0.60;;;0.60;;
46721;SDS011;32455;43.430;23.136;2023-08-07T07:21:45;2.60;;;0.93;;
46721;SDS011;32455;43.430;23.136;2023-08-07T07:24:31;1.38;;;0.80;;
46721;SDS011;32455;43.430;23.136;2023-08-07T07:27:16;0.88;;;0.88;;
46721;SDS011;32455;43.430;23.136;2023-08-07T07:30:01;2.60;;;0.70;;
46721;SDS011;32455;43.430;23.136;2023-08-07T07:32:47;0.75;;;0.70;;
46721;SDS011;32455;43.430;23.136;2023-08-07T07:35:33;0.65;;;0.60;;
46721;SDS011;32455;43.430;23.136;2023-08-07T07:38:23;0.70;;;0.70;;
46721;SDS011;32455;43.430;23.136;2023-08-07T07:41:08;1.10;;;0.77;;
46721;SDS011;32455;43.430;23.136;2023-08-07T07:43:55;0.63;;;0.60;;
46721;SDS011;32455;43.430;23.136;2023-08-07T07:46:40;0.77;;;0.70;;
46721;SDS011;32455;43.430;23.136;2023-08-07T07:49:26;1.13;;;0.60;;
46721;SDS011;32455;43.430;23.136;2023-08-07T07:52:11;0.80;;;0.65;;
46721;SDS011;32455;43.430;23.136;2023-08-07T07:54:56;1.48;;;0.73;;
46721;SDS011;32455;43.430;23.136;2023-08-07T07:57:42;0.60;;;0.60;;
46721;SDS011;32455;43.430;23.136;2023-08-07T08:00:27;1.45;;;0.60;;
46721;SDS011;32455;43.430;23.136;2023-08-07T08:03:12;1.13;;;0.50;;
46721;SDS011;32455;43.430;23.136;2023-08-07T08:05:58;0.77;;;0.60;;
46721;SDS011;32455;43.430;23.136;2023-08-07T08:08:44;1.13;;;0.50;;
46721;SDS011;32455;43.430;23.136;2023-08-07T08:11:30;0.80;;;0.50;;
46721;SDS011;32455;43.430;23.136;2023-08-07T08:14:16;0.88;;;0.50;;
46721;SDS011;32455;43.430;23.136;2023-08-07T08:17:01;0.98;;;0.60;;
46721;SDS011;32455;43.430;23.136;2023-08-07T08:19:47;0.50;;;0.40;;
46721;SDS011;32455;43.430;23.136;2023-08-07T08:22:32;0.50;;;0.50;;
46721;SDS011;32455;43.430;23.136;2023-08-07T08:25:18;0.50;;;0.50;;
46721;SDS011;32455;43.430;23.136;2023-08-07T08:28:03;0.60;;;0.50;;
46721;SDS011;32455;43.430;23.136;2023-08-07T08:30:49;0.85;;;0.60;;
46721;SDS011;32455;43.430;23.136;2023-08-07T08:33:34;0.85;;;0.70;;
46721;SDS011;32455;43.430;23.136;2023-08-07T08:36:19;0.45;;;0.40;;
46721;SDS011;32455;43.430;23.136;2023-08-07T08:39:04;0.98;;;0.50;;
46721;SDS011;32455;43.430;23.136;2023-08-07T08:41:50;0.50;;;0.50;;
46721;SDS011;32455;43.430;23.136;2023-08-07T08:44:37;0.47;;;0.47;;
46721;SDS011;32455;43.430;23.136;2023-08-07T08:47:25;0.52;;;0.40;;
46721;SDS011;32455;43.430;23.136;2023-08-07T08:50:12;0.60;;;0.60;;
46721;SDS011;32455;43.430;23.136;2023-08-07T08:52:59;0.50;;;0.50;;
46721;SDS011;32455;43.430;23.136;2023-08-07T08:55:45;0.50;;;0.50;;
46721;SDS011;32455;43.430;23.136;2023-08-07T08:58:31;0.68;;;0.40;;
46721;SDS011;32455;43.430;23.136;2023-08-07T09:01:18;0.60;;;0.50;;
46721;SDS011;32455;43.430;23.136;2023-08-07T09:04:03;1.55;;;0.43;;
46721;SDS011;32455;43.430;23.136;2023-08-07T09:06:50;0.60;;;0.60;;
46721;SDS011;32455;43.430;23.136;2023-08-07T09:09:35;0.57;;;0.57;;
46721;SDS011;32455;43.430;23.136;2023-08-07T09:12:22;1.50;;;0.60;;
46721;SDS011;32455;43.430;23.136;2023-08-07T09:15:11;0.88;;;0.40;;
46721;SDS011;32455;43.430;23.136;2023-08-07T09:18:00;0.40;;;0.40;;
46721;SDS011;32455;43.430;23.136;2023-08-07T09:20:52;0.87;;;0.60;;
46721;SDS011;32455;43.430;23.136;2023-08-07T09:23:38;0.80;;;0.80;;
46721;SDS011;32455;43.430;23.136;2023-08-07T09:26:23;1.58;;;0.52;;
46721;SDS011;32455;43.430;23.136;2023-08-07T09:29:12;0.52;;;0.50;;
46721;SDS011;32455;43.430;23.136;2023-08-07T09:32:05;0.63;;;0.50;;
46721;SDS011;32455;43.430;23.136;2023-08-07T09:34:53;1.02;;;0.43;;
46721;SDS011;32455;43.430;23.136;2023-08-07T09:37:38;2.20;;;0.70;;
46721;SDS011;32455;43.430;23.136;2023-08-07T09:40:24;0.40;;;0.40;;
46721;SDS011;32455;43.430;23.136;2023-08-07T09:43:09;0.40;;;0.40;;
46721;SDS011;32455;43.430;23.136;2023-08-07T09:46:04;0.60;;;0.55;;
46721;SDS011;32455;43.430;23.136;2023-08-07T09:48:50;0.80;;;0.45;;
46721;SDS011;32455;43.430;23.136;2023-08-07T09:51:41;1.60;;;0.70;;
46721;SDS011;32455;43.430;23.136;2023-08-07T09:54:27;0.45;;;0.45;;
46721;SDS011;32455;43.430;23.136;2023-08-07T09:57:12;0.50;;;0.50;;
46721;SDS011;32455;43.430;23.136;2023-08-07T09:59:59;0.80;;;0.50;;
46721;SDS011;32455;43.430;23.136;2023-08-07T10:02:45;0.50;;;0.47;;
46721;SDS011;32455;43.430;23.136;2023-08-07T10:05:32;2.72;;;0.47;;
46721;SDS011;32455;43.430;23.136;2023-08-07T10:08:18;4.13;;;0.55;;
46721;SDS011;32455;43.430;23.136;2023-08-07T10:11:03;0.50;;;0.50;;
46721;SDS011;32455;43.430;23.136;2023-08-07T10:13:50;0.95;;;0.50;;
46721;SDS011;32455;43.430;23.136;2023-08-07T10:16:35;1.20;;;0.50;;
46721;SDS011;32455;43.430;23.136;2023-08-07T10:19:24;0.43;;;0.43;;
46721;SDS011;32455;43.430;23.136;2023-08-07T10:22:10;1.58;;;0.40;;
46721;SDS011;32455;43.430;23.136;2023-08-07T10:24:57;2.55;;;0.63;;
46721;SDS011;32455;43.430;23.136;2023-08-07T10:27:43;1.00;;;0.60;;
46721;SDS011;32455;43.430;23.136;2023-08-07T10:30:29;0.50;;;0.50;;
46721;SDS011;32455;43.430;23.136;2023-08-07T10:33:16;0.52;;;0.50;;
46721;SDS011;32455;43.430;23.136;2023-08-07T10:36:07;0.63;;;0.55;;
46721;SDS011;32455;43.430;23.136;2023-08-07T10:39:05;0.50;;;0.50;;
46721;SDS011;32455;43.430;23.136;2023-08-07T10:41:59;0.52;;;0.52;;
46721;SDS011;32455;43.430;23.136;2023-08-07T10:44:48;0.50;;;0.50;;
46721;SDS011;32455;43.430;23.136;2023-08-07T10:47:37;0.80;;;0.57;;
46721;SDS011;32455;43.430;23.136;2023-08-07T10:50:34;0.60;;;0.60;;
46721;SDS011;32455;43.430;23.136;2023-08-07T10:56:18;0.80;;;0.40;;
46721;SDS011;32455;43.430;23.136;2023-08-07T10:59:13;0.60;;;0.50;;
46721;SDS011;32455;43.430;23.136;2023-08-07T11:01:59;0.60;;;0.40;;
46721;SDS011;32455;43.430;23.136;2023-08-07T11:04:44;2.25;;;0.50;;
46721;SDS011;32455;43.430;23.136;2023-08-07T11:07:29;1.25;;;0.60;;
46721;SDS011;32455;43.430;23.136;2023-08-07T11:10:15;10.85;;;0.80;;
46721;SDS011;32455;43.430;23.136;2023-08-07T11:13:01;2.78;;;0.45;;
46721;SDS011;32455;43.430;23.136;2023-08-07T11:15:46;0.57;;;0.57;;
46721;SDS011;32455;43.430;23.136;2023-08-07T11:18:32;0.60;;;0.60;;
46721;SDS011;32455;43.430;23.136;2023-08-07T11:21:17;0.70;;;0.65;;
46721;SDS011;32455;43.430;23.136;2023-08-07T11:24:04;0.47;;;0.47;;
46721;SDS011;32455;43.430;23.136;2023-08-07T11:26:49;0.40;;;0.40;;
46721;SDS011;32455;43.430;23.136;2023-08-07T11:29:36;2.55;;;0.52;;
46721;SDS011;32455;43.430;23.136;2023-08-07T11:32:21;1.05;;;0.70;;
46721;SDS011;32455;43.430;23.136;2023-08-07T11:35:07;1.13;;;0.50;;
46721;SDS011;32455;43.430;23.136;2023-08-07T11:37:53;1.45;;;0.75;;
46721;SDS011;32455;43.430;23.136;2023-08-07T11:40:39;0.60;;;0.60;;
46721;SDS011;32455;43.430;23.136;2023-08-07T11:43:24;0.73;;;0.47;;
46721;SDS011;32455;43.430;23.136;2023-08-07T11:46:10;2.53;;;0.98;;
46721;SDS011;32455;43.430;23.136;2023-08-07T11:48:56;0.50;;;0.50;;
46721;SDS011;32455;43.430;23.136;2023-08-07T11:51:41;1.40;;;0.80;;
46721;SDS011;32455;43.430;23.136;2023-08-07T11:54:27;0.60;;;0.60;;
46721;SDS011;32455;43.430;23.136;2023-08-07T11:57:31;0.50;;;0.50;;
46721;SDS011;32455;43.430;23.136;2023-08-07T12:00:16;0.50;;;0.50;;
46721;SDS011;32455;43.430;23.136;2023-08-07T12:03:02;0.55;;;0.52;;
46721;SDS011;32455;43.430;23.136;2023-08-07T12:05:48;0.90;;;0.60;;
46721;SDS011;32455;43.430;23.136;2023-08-07T12:08:37;0.60;;;0.50;;
46721;SDS011;32455;43.430;23.136;2023-08-07T12:11:24;0.57;;;0.57;;
46721;SDS011;32455;43.430;23.136;2023-08-07T12:14:13;2.00;;;0.80;;
46721;SDS011;32455;43.430;23.136;2023-08-07T12:17:03;0.65;;;0.50;;
46721;SDS011;32455;43.430;23.136;2023-08-07T12:19:50;0.60;;;0.60;;
46721;SDS011;32455;43.430;23.136;2023-08-07T12:22:35;0.68;;;0.68;;
46721;SDS011;32455;43.430;23.136;2023-08-07T12:25:20;1.83;;;0.90;;
46721;SDS011;32455;43.430;23.136;2023-08-07T12:28:06;0.98;;;0.52;;
46721;SDS011;32455;43.430;23.136;2023-08-07T12:30:51;0.60;;;0.60;;
46721;SDS011;32455;43.430;23.136;2023-08-07T12:33:37;1.13;;;0.85;;
46721;SDS011;32455;43.430;23.136;2023-08-07T12:36:21;1.95;;;0.60;;
46721;SDS011;32455;43.430;23.136;2023-08-07T12:39:07;0.60;;;0.60;;
46721;SDS011;32455;43.430;23.136;2023-08-07T12:41:52;1.00;;;0.73;;
46721;SDS011;32455;43.430;23.136;2023-08-07T12:44:38;1.17;;;0.68;;
46721;SDS011;32455;43.430;23.136;2023-08-07T12:47:23;1.35;;;0.88;;
46721;SDS011;32455;43.430;23.136;2023-08-07T12:50:08;0.68;;;0.68;;
46721;SDS011;32455;43.430;23.136;2023-08-07T12:52:54;15.48;;;1.80;;
46721;SDS011;32455;43.430;23.136;2023-08-07T12:55:40;1.63;;;0.80;;
46721;SDS011;32455;43.430;23.136;2023-08-07T12:58:25;0.90;;;0.90;;
46721;SDS011;32455;43.430;23.136;2023-08-07T13:01:14;1.58;;;0.70;;
46721;SDS011;32455;43.430;23.136;2023-08-07T13:03:59;0.80;;;0.80;;
46721;SDS011;32455;43.430;23.136;2023-08-07T13:06:44;2.30;;;0.82;;
46721;SDS011;32455;43.430;23.136;2023-08-07T13:09:29;0.70;;;0.70;;
46721;SDS011;32455;43.430;23.136;2023-08-07T13:12:15;0.98;;;0.73;;
46721;SDS011;32455;43.430;23.136;2023-08-07T13:15:01;1.10;;;0.80;;
46721;SDS011;32455;43.430;23.136;2023-08-07T13:17:47;1.58;;;0.80;;
46721;SDS011;32455;43.430;23.136;2023-08-07T13:20:32;1.48;;;0.80;;
46721;SDS011;32455;43.430;23.136;2023-08-07T13:23:19;1.48;;;0.80;;
46721;SDS011;32455;43.430;23.136;2023-08-07T13:26:04;1.10;;;0.90;;
46721;SDS011;32455;43.430;23.136;2023-08-07T13:28:49;3.08;;;0.70;;
46721;SDS011;32455;43.430;23.136;2023-08-07T13:31:35;0.73;;;0.70;;
46721;SDS011;32455;43.430;23.136;2023-08-07T13:34:20;1.10;;;0.90;;
46721;SDS011;32455;43.430;23.136;2023-08-07T13:37:05;1.38;;;0.70;;
46721;SDS011;32455;43.430;23.136;2023-08-07T13:39:52;0.70;;;0.70;;
46721;SDS011;32455;43.430;23.136;2023-08-07T13:42:38;1.15;;;0.90;;
46721;SDS011;32455;43.430;23.136;2023-08-07T13:45:24;0.80;;;0.80;;
46721;SDS011;32455;43.430;23.136;2023-08-07T13:48:09;1.85;;;0.80;;
46721;SDS011;32455;43.430;23.136;2023-08-07T13:50:54;1.27;;;1.10;;
46721;SDS011;32455;43.430;23.136;2023-08-07T13:53:41;0.70;;;0.70;;
46721;SDS011;32455;43.430;23.136;2023-08-07T13:56:27;4.75;;;1.00;;
46721;SDS011;32455;43.430;23.136;2023-08-07T13:59:12;2.03;;;0.93;;
46721;SDS011;32455;43.430;23.136;2023-08-07T14:01:58;0.77;;;0.70;;
46721;SDS011;32455;43.430;23.136;2023-08-07T14:04:44;1.35;;;0.90;;
46721;SDS011;32455;43.430;23.136;2023-08-07T14:07:32;1.20;;;1.10;;
46721;SDS011;32455;43.430;23.136;2023-08-07T14:10:18;2.78;;;0.90;;
46721;SDS011;32455;43.430;23.136;2023-08-07T14:13:04;2.08;;;0.70;;
46721;SDS011;32455;43.430;23.136;2023-08-07T14:15:50;1.42;;;0.90;;
46721;SDS011;32455;43.430;23.136;2023-08-07T14:18:35;9.68;;;3.70;;
46721;SDS011;32455;43.430;23.136;2023-08-07T14:21:20;3.53;;;1.85;;
46721;SDS011;32455;43.430;23.136;2023-08-07T14:24:05;3.42;;;1.40;;
46721;SDS011;32455;43.430;23.136;2023-08-07T14:26:51;5.90;;;1.20;;
46721;SDS011;32455;43.430;23.136;2023-08-07T14:29:36;0.90;;;0.80;;
46721;SDS011;32455;43.430;23.136;2023-08-07T14:32:22;8.18;;;1.25;;
46721;SDS011;32455;43.430;23.136;2023-08-07T14:35:07;2.70;;;1.13;;
46721;SDS011;32455;43.430;23.136;2023-08-07T14:37:53;3.30;;;1.08;;
46721;SDS011;32455;43.430;23.136;2023-08-07T14:40:38;1.83;;;1.20;;
46721;SDS011;32455;43.430;23.136;2023-08-07T14:43:28;1.58;;;0.98;;
46721;SDS011;32455;43.430;23.136;2023-08-07T14:46:16;1.77;;;1.05;;
46721;SDS011;32455;43.430;23.136;2023-08-07T14:49:03;1.00;;;0.90;;
46721;SDS011;32455;43.430;23.136;2023-08-07T14:51:48;2.35;;;1.00;;
46721;SDS011;32455;43.430;23.136;2023-08-07T14:54:33;3.92;;;1.17;;
46721;SDS011;32455;43.430;23.136;2023-08-07T14:57:19;3.30;;;1.30;;
46721;SDS011;32455;43.430;23.136;2023-08-07T15:00:04;1.27;;;0.98;;
46721;SDS011;32455;43.430;23.136;2023-08-07T15:02:51;1.80;;;1.02;;
46721;SDS011;32455;43.430;23.136;2023-08-07T15:05:36;0.98;;;0.90;;
46721;SDS011;32455;43.430;23.136;2023-08-07T15:08:21;1.00;;;1.00;;
46721;SDS011;32455;43.430;23.136;2023-08-07T15:11:07;2.17;;;1.00;;
46721;SDS011;32455;43.430;23.136;2023-08-07T15:13:52;1.40;;;1.15;;
46721;SDS011;32455;43.430;23.136;2023-08-07T15:16:37;2.60;;;1.30;;
46721;SDS011;32455;43.430;23.136;2023-08-07T15:19:23;2.70;;;1.15;;
46721;SDS011;32455;43.430;23.136;2023-08-07T15:22:10;2.30;;;1.08;;
46721;SDS011;32455;43.430;23.136;2023-08-07T15:24:56;1.77;;;1.10;;
46721;SDS011;32455;43.430;23.136;2023-08-07T15:27:41;2.05;;;0.93;;
46721;SDS011;32455;43.430;23.136;2023-08-07T15:30:27;1.10;;;1.00;;
46721;SDS011;32455;43.430;23.136;2023-08-07T15:33:14;1.15;;;1.05;;
46721;SDS011;32455;43.430;23.136;2023-08-07T15:35:59;3.42;;;1.05;;
46721;SDS011;32455;43.430;23.136;2023-08-07T15:38:45;1.45;;;1.15;;
46721;SDS011;32455;43.430;23.136;2023-08-07T15:41:30;1.30;;;1.20;;
46721;SDS011;32455;43.430;23.136;2023-08-07T15:44:16;2.25;;;1.10;;
46721;SDS011;32455;43.430;23.136;2023-08-07T15:47:01;3.33;;;1.17;;
46721;SDS011;32455;43.430;23.136;2023-08-07T15:49:47;1.95;;;1.00;;
46721;SDS011;32455;43.430;23.136;2023-08-07T15:52:32;2.42;;;1.20;;
46721;SDS011;32455;43.430;23.136;2023-08-07T15:55:18;2.42;;;1.00;;
46721;SDS011;32455;43.430;23.136;2023-08-07T15:58:04;2.10;;;1.27;;
46721;SDS011;32455;43.430;23.136;2023-08-07T16:00:50;2.33;;;1.17;;
46721;SDS011;32455;43.430;23.136;2023-08-07T16:03:35;1.45;;;1.10;;
46721;SDS011;32455;43.430;23.136;2023-08-07T16:06:21;1.88;;;1.00;;
46721;SDS011;32455;43.430;23.136;2023-08-07T16:09:05;1.20;;;1.10;;
46721;SDS011;32455;43.430;23.136;2023-08-07T16:11:51;1.63;;;1.30;;
46721;SDS011;32455;43.430;23.136;2023-08-07T16:14:36;1.20;;;1.10;;
46721;SDS011;32455;43.430;23.136;2023-08-07T16:17:22;2.00;;;1.50;;
46721;SDS011;32455;43.430;23.136;2023-08-07T16:20:07;1.50;;;1.40;;
46721;SDS011;32455;43.430;23.136;2023-08-07T16:22:53;2.63;;;1.40;;
46721;SDS011;32455;43.430;23.136;2023-08-07T16:25:39;3.03;;;1.33;;
46721;SDS011;32455;43.430;23.136;2023-08-07T16:28:24;1.20;;;1.10;;